createdAt,value
2019-03-21T00:00:43.521Z,63.30
2019-03-21T00:03:16.866Z,63.50
2019-03-21T00:05:50.323Z,63.40
2019-03-21T00:08:23.665Z,63.40
2019-03-21T00:11:58.151Z,63.30
2019-03-21T00:15:14.843Z,63.30
2019-03-21T00:17:53.373Z,63.90
2019-03-21T00:20:26.825Z,64.70
2019-03-21T00:22:59.979Z,65.10
2019-03-21T00:25:33.185Z,65.40
2019-03-21T00:28:06.477Z,65.50
2019-03-21T00:30:39.634Z,65.50
2019-03-21T00:33:13.021Z,65.90
2019-03-21T00:35:46.407Z,65.70
2019-03-21T00:38:19.482Z,65.40
2019-03-21T00:40:52.722Z,65.20
2019-03-21T00:43:26.070Z,64.50
2019-03-21T00:45:59.240Z,64.30
2019-03-21T00:48:32.335Z,63.60
2019-03-21T00:51:05.640Z,62.70
2019-03-21T00:53:38.909Z,62.30
2019-03-21T00:56:12.808Z,61.60
2019-03-21T00:58:45.953Z,61.10
2019-03-21T01:01:19.249Z,61.40
2019-03-21T01:03:52.952Z,61.70
2019-03-21T01:06:26.347Z,62.00
2019-03-21T01:08:59.637Z,62.00
2019-03-21T01:11:32.952Z,62.60
2019-03-21T01:14:06.869Z,62.60
2019-03-21T01:16:40.034Z,62.90
2019-03-21T01:19:13.163Z,62.90
2019-03-21T01:21:46.876Z,63.20
2019-03-21T01:24:20.004Z,63.60
2019-03-21T01:26:53.121Z,64.20
2019-03-21T01:29:26.524Z,64.80
2019-03-21T01:31:59.592Z,65.40
2019-03-21T01:34:32.947Z,65.30
2019-03-21T01:37:06.450Z,65.60
2019-03-21T01:39:39.701Z,65.40
2019-03-21T01:42:12.810Z,65.60
2019-03-21T01:44:45.957Z,65.60
2019-03-21T01:47:19.097Z,65.80
2019-03-21T01:49:52.218Z,65.80
2019-03-21T01:52:25.747Z,65.70
2019-03-21T01:54:59.066Z,66.00
2019-03-21T01:57:32.706Z,66.50
2019-03-21T02:00:07.565Z,67.20
2019-03-21T02:02:40.663Z,67.80
2019-03-21T02:05:13.886Z,68.00
2019-03-21T02:07:47.368Z,68.00
2019-03-21T02:10:20.837Z,68.20
2019-03-21T02:12:54.053Z,68.10
2019-03-21T02:15:27.409Z,68.10
2019-03-21T02:18:00.598Z,69.40
2019-03-21T02:20:33.879Z,68.60
2019-03-21T02:23:07.111Z,68.40
2019-03-21T02:25:40.578Z,67.70
2019-03-21T02:28:15.263Z,67.80
2019-03-21T02:30:48.930Z,67.50
2019-03-21T02:33:28.586Z,67.20
2019-03-21T02:36:01.707Z,67.50
2019-03-21T02:38:34.903Z,67.00
2019-03-21T02:41:09.478Z,68.10
2019-03-21T02:43:42.651Z,67.30
2019-03-21T02:46:16.183Z,67.20
2019-03-21T02:48:49.593Z,68.00
2019-03-21T02:51:22.743Z,69.00
2019-03-21T02:53:56.190Z,68.70
2019-03-21T02:56:29.632Z,68.60
2019-03-21T02:59:03.089Z,68.70
2019-03-21T03:01:36.348Z,68.70
2019-03-21T03:04:09.852Z,68.60
2019-03-21T03:06:43.006Z,68.80
2019-03-21T03:09:16.263Z,68.90
2019-03-21T03:11:49.647Z,68.80
2019-03-21T03:14:23.018Z,69.00
2019-03-21T03:16:56.412Z,69.30
2019-03-21T03:19:29.631Z,69.30
2019-03-21T03:22:02.971Z,69.70
2019-03-21T03:24:38.239Z,70.00
2019-03-21T03:27:11.510Z,70.10
2019-03-21T03:29:44.765Z,70.40
2019-03-21T03:32:18.256Z,70.30
2019-03-21T03:34:51.698Z,70.30
2019-03-21T03:37:24.837Z,70.20
2019-03-21T03:39:58.084Z,70.40
2019-03-21T03:42:31.176Z,70.00
2019-03-21T03:45:04.446Z,71.30
2019-03-21T03:47:37.756Z,71.50
2019-03-21T03:50:11.744Z,71.60
2019-03-21T03:52:44.889Z,71.90
2019-03-21T03:55:18.405Z,71.90
2019-03-21T03:57:52.156Z,71.80
2019-03-21T04:00:25.299Z,72.80
2019-03-21T04:02:58.678Z,72.10
2019-03-21T04:05:32.084Z,72.20
2019-03-21T04:08:05.475Z,72.10
2019-03-21T04:10:43.406Z,72.10
2019-03-21T04:13:17.605Z,72.50
2019-03-21T04:15:53.058Z,72.50
2019-03-21T04:18:25.999Z,72.90
2019-03-21T04:21:00.263Z,72.50
2019-03-21T04:23:33.778Z,72.60
2019-03-21T04:26:15.183Z,72.80
2019-03-21T04:28:48.600Z,72.80
2019-03-21T04:31:21.888Z,73.10
2019-03-21T04:33:57.149Z,73.40
2019-03-21T04:36:30.174Z,73.40
2019-03-21T04:39:04.636Z,73.60
2019-03-21T04:41:37.835Z,74.50
2019-03-21T04:44:11.163Z,75.30
2019-03-21T04:46:44.483Z,76.20
2019-03-21T04:49:17.706Z,77.10
2019-03-21T04:51:50.927Z,77.40
2019-03-21T04:54:25.465Z,77.80
2019-03-21T04:56:58.662Z,77.70
2019-03-21T04:59:31.988Z,78.80
2019-03-21T05:02:05.417Z,80.10
2019-03-21T05:04:39.060Z,80.00
2019-03-21T05:07:12.358Z,80.60
2019-03-21T05:09:45.777Z,81.00
2019-03-21T05:12:18.751Z,81.80
2019-03-21T05:14:52.045Z,82.20
2019-03-21T05:17:25.229Z,84.00
2019-03-21T05:19:58.835Z,83.60
2019-03-21T05:22:35.466Z,83.00
2019-03-21T05:25:10.852Z,82.50
2019-03-21T05:27:44.512Z,82.30
2019-03-21T05:30:25.773Z,81.30
2019-03-21T05:32:59.299Z,80.60
2019-03-21T05:35:33.084Z,80.50
2019-03-21T05:38:06.441Z,79.40
2019-03-21T05:40:39.713Z,78.70
2019-03-21T05:43:17.626Z,77.80
2019-03-21T05:45:50.850Z,77.60
2019-03-21T05:48:24.114Z,78.00
2019-03-21T05:50:57.631Z,77.90
2019-03-21T05:53:30.668Z,77.10
2019-03-21T05:56:04.322Z,76.80
2019-03-21T05:58:37.694Z,76.10
2019-03-21T06:01:21.889Z,76.00
2019-03-21T06:03:55.800Z,75.60
2019-03-21T06:06:41.652Z,77.50
2019-03-21T06:09:17.810Z,85.80
2019-03-21T06:11:56.360Z,75.70
2019-03-21T06:14:29.856Z,73.30
2019-03-21T06:17:03.476Z,70.80
2019-03-21T06:20:09.294Z,70.00
2019-03-21T06:23:05.903Z,67.90
2019-03-21T06:26:14.907Z,69.30
2019-03-21T06:28:48.515Z,75.00
2019-03-21T06:31:21.733Z,68.00
2019-03-21T06:33:55.046Z,67.30
2019-03-21T06:36:28.349Z,62.70
2019-03-21T06:39:01.889Z,60.90
2019-03-21T06:41:35.287Z,60.10
2019-03-21T06:44:08.538Z,59.40
2019-03-21T06:46:49.487Z,58.10
2019-03-21T06:49:17.103Z,57.30
2019-03-21T06:51:50.424Z,56.00
2019-03-21T06:54:23.641Z,56.00
2019-03-21T06:57:02.293Z,53.90
2019-03-21T06:59:34.753Z,52.30
2019-03-21T07:02:08.043Z,52.80
2019-03-21T07:04:41.600Z,50.50
2019-03-21T07:07:33.355Z,51.00
2019-03-21T07:10:08.469Z,51.10
2019-03-21T07:12:41.938Z,51.50
2019-03-21T07:15:18.039Z,50.50
2019-03-21T07:17:51.394Z,49.40
2019-03-21T07:20:24.831Z,48.70
2019-03-21T07:22:58.084Z,48.30
2019-03-21T07:25:31.438Z,48.30
2019-03-21T07:28:04.601Z,47.90
2019-03-21T07:30:38.307Z,48.60
2019-03-21T07:33:11.695Z,48.00
2019-03-21T07:35:45.196Z,48.30
2019-03-21T07:38:18.639Z,47.20
2019-03-21T07:40:52.012Z,46.70
2019-03-21T07:43:25.583Z,46.40
2019-03-21T07:45:58.982Z,45.00
2019-03-21T07:48:32.593Z,44.00
2019-03-21T07:51:05.872Z,43.80
2019-03-21T07:53:39.199Z,43.50
2019-03-21T07:56:12.495Z,42.50
2019-03-21T07:58:45.812Z,41.60
2019-03-21T08:01:19.313Z,41.20
2019-03-21T08:03:52.747Z,42.10
2019-03-21T08:06:26.010Z,41.10
2019-03-21T08:08:59.479Z,39.50
2019-03-21T08:11:33.381Z,39.40
2019-03-21T08:14:06.708Z,39.10
2019-03-21T08:16:39.983Z,37.80
2019-03-21T08:19:13.356Z,38.30
2019-03-21T08:21:46.689Z,37.50
2019-03-21T08:24:19.986Z,36.10
2019-03-21T08:26:53.664Z,35.50
2019-03-21T08:29:26.885Z,35.10
2019-03-21T08:32:00.267Z,34.90
2019-03-21T08:34:33.643Z,34.50
2019-03-21T08:37:06.955Z,34.40
2019-03-21T08:39:40.193Z,34.50
2019-03-21T08:42:13.625Z,35.70
2019-03-21T08:44:46.989Z,35.00
2019-03-21T08:47:20.408Z,34.80
2019-03-21T08:49:53.710Z,35.50
2019-03-21T08:52:27.377Z,36.80
2019-03-21T08:55:00.578Z,36.80
2019-03-21T08:57:33.826Z,37.00
2019-03-21T09:00:08.321Z,36.50
2019-03-21T09:02:41.680Z,37.30
2019-03-21T09:05:15.285Z,37.40
2019-03-21T09:07:48.618Z,37.00
2019-03-21T09:10:22.133Z,37.30
2019-03-21T09:12:55.441Z,36.00
2019-03-21T09:15:29.212Z,35.80
2019-03-21T09:18:02.596Z,35.90
2019-03-21T09:20:35.991Z,35.80
2019-03-21T09:23:09.289Z,35.90
2019-03-21T09:25:42.818Z,35.60
2019-03-21T09:28:16.242Z,35.90
2019-03-21T09:30:50.730Z,36.00
2019-03-21T09:33:24.228Z,35.90
2019-03-21T09:35:57.401Z,36.00
2019-03-21T09:38:30.871Z,35.00
2019-03-21T09:41:04.220Z,35.60
2019-03-21T09:43:37.597Z,35.30
2019-03-21T09:46:10.952Z,34.20
2019-03-21T09:48:44.462Z,34.50
2019-03-21T09:51:17.888Z,34.40
2019-03-21T09:53:51.451Z,35.50
2019-03-21T09:56:24.897Z,34.90
2019-03-21T09:58:58.227Z,33.60
2019-03-21T10:01:31.694Z,33.20
2019-03-21T10:04:05.471Z,32.70
2019-03-21T10:06:38.768Z,32.40
2019-03-21T10:09:12.192Z,32.40
2019-03-21T10:11:45.491Z,32.00
2019-03-21T10:14:18.859Z,32.10
2019-03-21T10:16:52.171Z,32.30
2019-03-21T10:19:25.594Z,32.10
2019-03-21T10:21:58.945Z,31.40
2019-03-21T10:24:32.408Z,30.90
2019-03-21T10:27:05.796Z,31.30
2019-03-21T10:29:39.151Z,31.30
2019-03-21T10:32:14.599Z,31.50
2019-03-21T10:34:47.878Z,31.60
2019-03-21T10:37:21.381Z,31.20
2019-03-21T10:39:54.830Z,32.10
2019-03-21T10:42:28.311Z,31.70
2019-03-21T10:45:01.831Z,32.00
2019-03-21T10:47:35.649Z,32.20
2019-03-21T10:50:09.924Z,32.60
2019-03-21T10:52:43.294Z,31.70
2019-03-21T10:55:16.868Z,32.40
2019-03-21T10:57:50.902Z,32.10
2019-03-21T11:00:24.595Z,32.30
2019-03-21T11:02:58.063Z,31.40
2019-03-21T11:05:31.504Z,31.80
2019-03-21T11:08:05.273Z,32.80
2019-03-21T11:10:38.400Z,32.70
2019-03-21T11:13:11.986Z,32.30
2019-03-21T11:15:48.459Z,32.20
2019-03-21T11:18:22.591Z,33.30
2019-03-21T11:20:56.772Z,32.60
2019-03-21T11:23:30.167Z,32.60
2019-03-21T11:26:03.442Z,32.20
2019-03-21T11:28:36.894Z,32.60
2019-03-21T11:31:10.129Z,33.30
2019-03-21T11:33:43.750Z,33.30
2019-03-21T11:36:17.003Z,33.30
2019-03-21T11:38:50.470Z,32.90
2019-03-21T11:41:23.653Z,33.20
2019-03-21T11:43:57.066Z,33.50
2019-03-21T11:46:48.618Z,33.20
2019-03-21T11:49:21.829Z,33.40
2019-03-21T11:51:55.305Z,34.70
2019-03-21T11:54:28.760Z,34.30
2019-03-21T11:57:02.049Z,34.90
2019-03-21T11:59:46.493Z,34.20
2019-03-21T12:02:10.692Z,34.80
2019-03-21T12:04:44.099Z,34.80
2019-03-21T12:07:17.395Z,35.40
2019-03-21T12:09:50.815Z,35.50
2019-03-21T12:12:24.069Z,36.30
2019-03-21T12:14:57.409Z,35.60
2019-03-21T12:17:31.167Z,35.70
2019-03-21T12:20:04.745Z,35.10
2019-03-21T12:22:38.065Z,36.30
2019-03-21T12:25:12.050Z,36.50
2019-03-21T12:27:45.612Z,37.10
2019-03-21T12:30:28.957Z,36.50
2019-03-21T12:33:02.829Z,36.20
2019-03-21T12:35:36.333Z,37.20
2019-03-21T12:38:10.369Z,38.50
2019-03-21T12:40:43.871Z,38.70
2019-03-21T12:43:17.245Z,38.30
2019-03-21T12:45:50.692Z,39.00
2019-03-21T12:48:24.104Z,38.80
2019-03-21T12:50:57.479Z,38.40
2019-03-21T12:53:31.207Z,38.90
2019-03-21T12:56:04.682Z,39.70
2019-03-21T12:58:38.200Z,39.60
2019-03-21T13:01:11.464Z,39.80
2019-03-21T13:03:45.160Z,40.70
2019-03-21T13:06:18.500Z,40.10
2019-03-21T13:08:51.683Z,39.30
2019-03-21T13:11:25.323Z,40.10
2019-03-21T13:13:58.561Z,39.30
2019-03-21T13:16:31.894Z,39.00
2019-03-21T13:19:05.305Z,39.20
2019-03-21T13:21:38.591Z,39.30
2019-03-21T13:24:12.137Z,39.50
2019-03-21T13:26:45.579Z,39.60
2019-03-21T13:29:19.072Z,40.20
2019-03-21T13:31:52.285Z,39.80
2019-03-21T13:34:25.686Z,41.00
2019-03-21T13:36:59.039Z,41.00
2019-03-21T13:39:32.309Z,40.70
2019-03-21T13:42:05.826Z,40.70
2019-03-21T13:44:39.042Z,39.90
2019-03-21T13:47:12.703Z,40.30
2019-03-21T13:49:45.934Z,40.20
2019-03-21T13:52:19.299Z,40.00
2019-03-21T13:54:53.331Z,39.90
2019-03-21T13:57:26.653Z,39.70
2019-03-21T14:00:00.012Z,40.80
2019-03-21T14:02:33.250Z,41.60
2019-03-21T14:05:07.930Z,40.90
2019-03-21T14:07:41.438Z,40.80
2019-03-21T14:10:16.002Z,41.10
2019-03-21T14:12:49.471Z,41.40
2019-03-21T14:15:24.016Z,41.40
2019-03-21T14:17:57.485Z,40.90
2019-03-21T14:20:30.791Z,41.10
2019-03-21T14:23:16.046Z,41.50
2019-03-21T14:25:39.208Z,40.90
2019-03-21T14:28:12.835Z,41.10
2019-03-21T14:30:46.292Z,40.00
2019-03-21T14:33:19.621Z,39.80
2019-03-21T14:35:53.121Z,40.60
2019-03-21T14:38:26.740Z,40.90
2019-03-21T14:41:00.118Z,41.00
2019-03-21T14:43:33.600Z,40.40
2019-03-21T14:46:06.793Z,40.40
2019-03-21T14:48:40.111Z,40.10
2019-03-21T14:51:13.487Z,40.30
2019-03-21T14:53:47.164Z,40.00
2019-03-21T14:56:20.606Z,39.80
2019-03-21T14:58:53.882Z,39.50
2019-03-21T15:01:27.686Z,39.10
2019-03-21T15:04:19.417Z,39.70
2019-03-21T15:06:53.101Z,39.70
2019-03-21T15:09:26.566Z,40.00
2019-03-21T15:12:00.332Z,39.90
2019-03-21T15:14:33.920Z,40.20
2019-03-21T15:17:07.486Z,40.00
2019-03-21T15:19:40.933Z,39.90
2019-03-21T15:22:14.368Z,39.90
2019-03-21T15:24:47.696Z,40.50
2019-03-21T15:27:24.216Z,40.30
2019-03-21T15:29:57.682Z,40.60
2019-03-21T15:32:31.188Z,40.00
2019-03-21T15:35:05.204Z,39.70
2019-03-21T15:37:38.704Z,40.50
2019-03-21T15:40:13.375Z,41.00
2019-03-21T15:42:46.885Z,41.30
2019-03-21T15:45:23.620Z,40.60
2019-03-21T15:47:56.168Z,41.10
2019-03-21T15:50:38.649Z,40.90
2019-03-21T15:53:12.131Z,40.90
2019-03-21T15:55:45.567Z,40.60
2019-03-21T15:58:19.028Z,41.10
2019-03-21T16:01:11.218Z,40.60
2019-03-21T16:03:44.823Z,40.80
2019-03-21T16:06:18.164Z,41.00
2019-03-21T16:08:51.811Z,40.80
2019-03-21T16:11:25.392Z,41.10
2019-03-21T16:13:58.724Z,41.60
2019-03-21T16:16:32.082Z,41.60
2019-03-21T16:19:05.375Z,41.30
2019-03-21T16:21:57.479Z,41.10
2019-03-21T16:24:31.156Z,41.20
2019-03-21T16:27:04.537Z,41.00
2019-03-21T16:29:37.906Z,41.10
2019-03-21T16:32:11.468Z,41.40
2019-03-21T16:34:44.820Z,42.30
2019-03-21T16:37:18.127Z,41.90
2019-03-21T16:39:51.820Z,42.10
2019-03-21T16:42:25.700Z,42.60
2019-03-21T16:44:59.048Z,42.70
2019-03-21T16:47:32.315Z,42.20
2019-03-21T16:50:06.756Z,42.20
2019-03-21T16:52:39.791Z,42.50
2019-03-21T16:55:14.348Z,43.10
2019-03-21T16:57:48.154Z,43.60
2019-03-21T17:00:22.111Z,43.20
2019-03-21T17:02:55.549Z,43.70
2019-03-21T17:05:28.956Z,43.60
2019-03-21T17:08:11.288Z,44.70
2019-03-21T17:10:37.826Z,44.90
2019-03-21T17:13:11.873Z,46.00
2019-03-21T17:15:45.190Z,45.90
2019-03-21T17:18:18.918Z,47.00
2019-03-21T17:20:52.494Z,47.10
2019-03-21T17:23:25.912Z,47.40
2019-03-21T17:25:59.397Z,47.80
2019-03-21T17:28:32.794Z,48.00
2019-03-21T17:31:06.308Z,48.10
2019-03-21T17:33:39.614Z,48.20
2019-03-21T17:36:12.979Z,49.00
2019-03-21T17:38:46.517Z,48.90
2019-03-21T17:41:19.836Z,48.90
2019-03-21T17:43:53.273Z,49.50
2019-03-21T17:46:27.107Z,49.80
2019-03-21T17:49:00.735Z,49.50
2019-03-21T17:51:34.036Z,50.10
2019-03-21T17:54:07.482Z,50.20
2019-03-21T17:56:41.173Z,49.80
2019-03-21T17:59:14.482Z,50.20
2019-03-21T18:01:47.921Z,50.40
2019-03-21T18:04:21.313Z,50.80
2019-03-21T18:06:55.124Z,50.70
2019-03-21T18:09:28.725Z,51.30
2019-03-21T18:12:02.208Z,51.40
2019-03-21T18:14:35.565Z,51.40
2019-03-21T18:17:09.027Z,50.60
2019-03-21T18:19:43.124Z,51.00
2019-03-21T18:22:16.399Z,51.90
2019-03-21T18:24:53.996Z,51.90
2019-03-21T18:27:24.999Z,52.10
2019-03-21T18:29:58.438Z,52.10
2019-03-21T18:32:31.742Z,51.90
2019-03-21T18:35:05.627Z,52.20
2019-03-21T18:37:39.470Z,57.00
2019-03-21T18:40:14.470Z,58.20
2019-03-21T18:42:48.001Z,55.80
2019-03-21T18:45:21.550Z,56.80
2019-03-21T18:47:54.560Z,56.10
2019-03-21T18:50:28.022Z,54.10
2019-03-21T18:53:01.465Z,53.50
2019-03-21T18:55:34.796Z,53.20
2019-03-21T18:58:08.311Z,52.90
2019-03-21T19:00:41.592Z,52.90
2019-03-21T19:03:15.099Z,53.10
2019-03-21T19:05:48.473Z,53.10
2019-03-21T19:08:32.232Z,53.40
2019-03-21T19:11:05.611Z,53.90
2019-03-21T19:13:39.198Z,55.00
2019-03-21T19:16:14.034Z,54.30
2019-03-21T19:18:48.027Z,54.40
2019-03-21T19:21:21.414Z,53.80
2019-03-21T19:23:54.707Z,53.00
2019-03-21T19:26:28.098Z,53.70
2019-03-21T19:29:01.808Z,53.90
2019-03-21T19:31:35.240Z,54.10
2019-03-21T19:34:08.744Z,54.30
2019-03-21T19:36:41.962Z,54.70
2019-03-21T19:39:15.592Z,54.70
2019-03-21T19:41:48.882Z,54.70
2019-03-21T19:44:22.355Z,54.70
2019-03-21T19:46:55.875Z,54.70
2019-03-21T19:49:29.417Z,55.20
2019-03-21T19:52:05.398Z,55.20
2019-03-21T19:54:38.441Z,55.20
2019-03-21T19:57:12.070Z,55.60
2019-03-21T19:59:45.417Z,55.00
2019-03-21T20:02:18.912Z,55.10
2019-03-21T20:04:53.791Z,53.90
2019-03-21T20:07:27.567Z,53.60
2019-03-21T20:10:00.912Z,53.70
2019-03-21T20:12:36.917Z,53.50
2019-03-21T20:15:11.486Z,53.80
2019-03-21T20:17:45.007Z,53.70
2019-03-21T20:20:19.366Z,54.10
2019-03-21T20:22:52.983Z,54.40
2019-03-21T20:25:26.823Z,54.70
2019-03-21T20:28:00.048Z,55.00
2019-03-21T20:30:36.275Z,55.30
2019-03-21T20:33:14.644Z,54.40
2019-03-21T20:35:47.932Z,55.30
2019-03-21T20:38:21.330Z,55.90
2019-03-21T20:40:54.682Z,57.10
2019-03-21T20:43:28.283Z,59.60
2019-03-21T20:46:01.673Z,59.10
2019-03-21T20:48:32.011Z,60.10
2019-03-21T20:51:05.571Z,58.10
2019-03-21T20:53:39.123Z,57.70
2019-03-21T20:56:12.731Z,59.00
2019-03-21T20:58:46.093Z,57.40
2019-03-21T21:01:19.394Z,57.90
2019-03-21T21:03:52.861Z,56.90
2019-03-21T21:06:26.199Z,55.50
2019-03-21T21:08:59.603Z,54.20
2019-03-21T21:11:35.132Z,54.70
2019-03-21T21:14:08.533Z,53.70
2019-03-21T21:16:42.271Z,54.60
2019-03-21T21:19:15.593Z,53.90
2019-03-21T21:21:49.045Z,55.00
2019-03-21T21:24:22.740Z,54.50
2019-03-21T21:26:56.711Z,55.50
2019-03-21T21:29:30.211Z,55.90
2019-03-21T21:32:03.783Z,56.40
2019-03-21T21:34:37.432Z,56.10
2019-03-21T21:37:10.826Z,55.10
2019-03-21T21:39:44.314Z,56.40
2019-03-21T21:42:17.917Z,57.90
2019-03-21T21:44:52.314Z,57.30
2019-03-21T21:47:25.804Z,56.90
2019-03-21T21:49:59.264Z,57.10
2019-03-21T21:52:41.565Z,57.00
2019-03-21T21:55:09.002Z,56.50
2019-03-21T21:57:44.924Z,55.60
2019-03-21T22:00:19.725Z,55.80
2019-03-21T22:02:53.183Z,56.30
2019-03-21T22:05:28.186Z,56.50
2019-03-21T22:08:02.099Z,56.40
2019-03-21T22:10:35.801Z,56.90
2019-03-21T22:13:09.144Z,56.10
2019-03-21T22:15:42.535Z,57.40
2019-03-21T22:18:16.128Z,58.00
2019-03-21T22:20:49.848Z,57.50
2019-03-21T22:23:23.716Z,56.50
2019-03-21T22:25:57.066Z,56.00
2019-03-21T22:28:30.497Z,56.30
2019-03-21T22:31:04.133Z,55.80
2019-03-21T22:33:37.540Z,55.90
2019-03-21T22:36:10.889Z,55.80
2019-03-21T22:38:45.467Z,55.80
2019-03-21T22:41:19.465Z,55.70
2019-03-21T22:43:52.893Z,55.50
2019-03-21T22:46:26.309Z,56.20
2019-03-21T22:48:59.728Z,54.90
2019-03-21T22:51:33.859Z,55.20
2019-03-21T22:54:07.370Z,54.40
2019-03-21T22:56:41.697Z,54.50
2019-03-21T22:59:16.217Z,54.90
2019-03-21T23:01:50.452Z,54.50
2019-03-21T23:04:24.815Z,54.40
2019-03-21T23:06:59.575Z,54.50
2019-03-21T23:09:34.018Z,54.80
2019-03-21T23:12:07.916Z,55.30
2019-03-21T23:14:41.360Z,55.70
2019-03-21T23:17:14.754Z,56.00
2019-03-21T23:19:48.031Z,56.00
2019-03-21T23:22:21.307Z,56.30
2019-03-21T23:24:54.516Z,56.60
2019-03-21T23:27:27.761Z,56.60
2019-03-21T23:30:01.068Z,56.80
2019-03-21T23:32:34.331Z,57.00
2019-03-21T23:35:10.001Z,57.30
2019-03-21T23:37:43.293Z,57.40
2019-03-21T23:40:17.318Z,57.70
2019-03-21T23:42:50.716Z,57.50
2019-03-21T23:45:24.206Z,57.50
2019-03-21T23:47:57.672Z,57.10
2019-03-21T23:50:31.235Z,57.50
2019-03-21T23:53:04.832Z,56.90
2019-03-21T23:55:38.166Z,57.10
2019-03-21T23:58:11.667Z,57.10
